Batik B739 at Semarang on Mar 28th 2021, hydraulic fault

Last Update: March 29, 2021 / 16:36:43 GMT/Zulu time

Bookmark this article
Incident Facts

Date of incident
Mar 28, 2021

Classification
Incident

Airline
Batik Air

Flight number
ID-6355

Aircraft Registration
PK-LBI

Aircraft Type
Boeing 737-900

ICAO Type Designator
B739

A Batik Air Boeing 737-900, registration PK-LBI performing flight ID-6355 from Semarang to Jakarta (Indonesia) with 120 passengers and 6 crew, was climbing out of Semarang's runway 31 when the crew stopped the climb at about 7000 feet and decided to return to Semarang. The aircraft landed safely back on runway 13 at a higher than normal speed (175 knots over ground) about 30 minutes after departure.

The airline reported the crew returned because certain components of the aircraft were not in their proper position due to technical problems with a hydraulic system.

A replacement A320-200 registration PK-LZJ reached Jakarta with a delay of 3:50 hours.

The occurrence aircraft is still on the ground in Semarang about 32 hours after landing back.

Metars:
WAHS 281000Z 13002KT 6000 -RA FEW013CB SCT014 30/24 Q1005 NOSIG=
WAHS 280930Z 26003KT 6000 FEW013CB FEW014 30/25 Q1005 NOSIG=
WAHS 280900Z 21002KT 7000 FEW013CB FEW014 29/25 Q1005 NOSIG=
WAHS 280800Z 34009KT 1300 -RA SCT014 27/24 Q1005 NOSIG=
WAHS 280730Z 00000KT 6000 -TSRA FEW013CB FEW014 32/24 Q1005 NOSIG=
WAHS 280700Z 32009KT 8000 FEW014 32/24 Q1005 NOSIG=
WAHS 280630Z 34008KT 8000 FEW014 32/25 Q1006 NOSIG=
WAHS 280600Z 34008KT 8000 FEW014 31/25 Q1006 NOSIG=
Incident Facts

Date of incident
Mar 28, 2021

Classification
Incident

Airline
Batik Air

Flight number
ID-6355

Aircraft Registration
PK-LBI

Aircraft Type
Boeing 737-900

ICAO Type Designator
B739

This article is published under license from Avherald.com. © of text by Avherald.com.
Article source

You can read 4 more free articles without a subscription.

Subscribe now and continue reading without any limits!

Are you a subscriber?
Login
Subscribe

Read unlimited articles and receive our daily update briefing. Gain better insights into what is happening in commercial aviation safety.

Free newsletter

Want to know more and stay ahead? Get our free weekly newsletter and join 4942 existing subscribers.

By subscribing, you accept our terms and conditions and confirm that you've read our privacy policy.

Send tip

Support AeroInside by sending a small tip amount.

Related articles

Newest articles

Subscribe today

Are you researching aviation incidents? Get access to AeroInside Insights, unlimited read access and receive the daily newsletter.

Pick your plan and subscribe

Partner

Blockaviation logo

A new way to document and demonstrate airworthiness compliance and aircraft value. Find out more.

Virtual Speech logo

ELITE Simulation Solutions is a leading global provider of Flight Simulation Training Devices, IFR training software as well as flight controls and related services. Find out more.

Get updates

Never miss an article from AeroInside. Subscribe to our free weekly newsletter and join 4942 existing subscribers.

By subscribing, you accept our terms and conditions and that you've read our privacy policy.

AeroInside Blog
Popular aircraft
Airbus A320
Boeing 737-800
Boeing 737-800 MAX
Popular airlines
American Airlines
United
Delta
Air Canada
Lufthansa
British Airways